Time;durP1;ratioP1;P1;durP2;ratioP2;P2;SDS_P1;SDS_P2;PMS_P1;PMS_P2;Temp;Humidity;BMP_temperature;BMP_pressure;BME280_temperature;BME280_humidity;BME280_pressure;Samples;Min_cycle;Max_cycle;Signal;HPM_P1;HPM_P2
2023/12/28 00:00:05;;;;;;;14.73;8.07;;;1.30;99.90;0.30;100308;;;;593997;241;24080;-77
2023/12/28 00:02:33;;;;;;;19.17;8.93;;;1.30;99.90;0.30;100302;;;;593268;241;24128;-78
2023/12/28 00:05:01;;;;;;;16.17;8.50;;;1.30;99.90;0.20;100308;;;;593697;241;24073;-79
2023/12/28 00:07:29;;;;;;;19.27;9.80;;;1.30;99.90;0.30;100310;;;;593754;241;24057;-78
2023/12/28 00:09:57;;;;;;;22.07;9.27;;;1.30;99.90;0.30;100300;;;;593704;241;24078;-79
2023/12/28 00:12:25;;;;;;;13.33;8.37;;;1.30;99.90;0.20;100295;;;;585123;241;24153;-77
2023/12/28 00:14:53;;;;;;;20.23;9.43;;;1.30;99.90;0.30;100285;;;;594234;241;24055;-78
2023/12/28 00:17:21;;;;;;;23.23;9.73;;;1.30;99.90;0.20;100273;;;;593915;241;24239;-79
2023/12/28 00:19:49;;;;;;;22.87;10.33;;;1.20;99.90;0.20;100275;;;;593852;241;24056;-78
2023/12/28 00:22:17;;;;;;;20.97;10.00;;;1.20;99.90;0.20;100278;;;;593241;241;24057;-78
2023/12/28 00:24:46;;;;;;;21.63;11.47;;;1.20;99.90;0.20;100266;;;;593086;241;24043;-79
2023/12/28 00:27:14;;;;;;;24.67;11.47;;;1.20;99.90;0.10;100263;;;;592987;238;24064;-78
2023/12/28 00:29:43;;;;;;;28.47;12.37;;;1.20;99.90;0.10;100260;;;;593468;241;25163;-78
2023/12/28 00:32:11;;;;;;;26.40;12.30;;;1.10;99.90;0.10;100251;;;;593476;241;24153;-79
2023/12/28 00:34:39;;;;;;;23.23;12.40;;;1.20;99.90;0.10;100245;;;;593575;239;24055;-79
2023/12/28 00:37:07;;;;;;;26.37;12.47;;;1.20;99.90;0.10;100249;;;;585488;240;24092;-78
2023/12/28 00:39:35;;;;;;;28.17;15.02;;;1.10;99.90;0.10;100255;;;;589385;241;35202;-79
2023/12/28 00:42:03;;;;;;;14.93;7.13;;;1.20;99.90;0.20;100249;;;;593949;241;24140;-78
2023/12/28 00:44:31;;;;;;;11.97;6.33;;;1.20;99.90;0.20;100247;;;;585185;240;24071;-80
2023/12/28 00:46:59;;;;;;;22.93;10.53;;;1.20;99.90;0.20;100256;;;;594798;241;24097;-79
2023/12/28 00:49:27;;;;;;;22.40;12.43;;;1.20;99.90;0.20;100268;;;;594099;241;24042;-80
2023/12/28 00:51:56;;;;;;;24.73;11.57;;;1.20;99.90;0.20;100259;;;;593564;241;24096;-79
2023/12/28 00:54:24;;;;;;;29.47;12.43;;;1.20;99.90;0.20;100258;;;;593877;241;24076;-79
2023/12/28 00:56:52;;;;;;;24.33;13.53;;;1.20;99.90;0.20;100256;;;;585185;241;24079;-79
2023/12/28 00:59:20;;;;;;;28.10;12.93;;;1.20;99.90;0.20;100247;;;;593227;241;24047;-78
2023/12/28 01:01:48;;;;;;;25.43;12.37;;;1.20;99.90;0.20;100251;;;;593239;241;24051;-77
2023/12/28 01:04:16;;;;;;;23.13;12.57;;;1.20;99.90;0.20;100227;;;;593826;241;24180;-79
2023/12/28 01:06:44;;;;;;;19.83;11.13;;;1.20;99.90;0.20;100213;;;;584940;241;24088;-79
2023/12/28 01:09:12;;;;;;;19.30;10.20;;;1.20;99.90;0.20;100209;;;;593738;241;24074;-79
2023/12/28 01:11:40;;;;;;;20.17;11.03;;;1.20;99.90;0.20;100202;;;;584729;241;24071;-81
2023/12/28 01:14:08;;;;;;;21.57;11.63;;;1.20;99.90;0.10;100215;;;;584469;241;24040;-79
2023/12/28 01:16:39;;;;;;;22.23;11.43;;;1.10;99.90;0.10;100209;;;;592705;241;25089;-81
2023/12/28 01:19:04;;;;;;;17.20;9.30;;;1.10;99.90;0.10;100213;;;;584158;241;24078;-79
2023/12/28 01:21:35;;;;;;;21.90;10.80;;;1.00;99.90;0.00;100219;;;;594332;241;24067;-78
2023/12/28 01:24:00;;;;;;;16.50;9.80;;;1.00;99.90;-0.10;100216;;;;584358;241;24094;-79
2023/12/28 01:26:28;;;;;;;18.33;10.43;;;1.00;99.90;-0.10;100210;;;;593424;238;24133;-78
2023/12/28 01:28:56;;;;;;;20.93;10.47;;;0.90;99.90;-0.20;100209;;;;585147;241;24111;-79
2023/12/28 01:31:24;;;;;;;21.97;11.13;;;0.80;99.90;-0.30;100192;;;;584464;241;24058;-80
2023/12/28 01:33:52;;;;;;;19.00;9.60;;;0.80;99.90;-0.30;100188;;;;585112;241;25085;-80
2023/12/28 01:36:20;;;;;;;25.97;10.93;;;0.70;99.90;-0.30;100185;;;;592963;241;24046;-79
2023/12/28 01:38:48;;;;;;;21.87;10.93;;;0.70;99.90;-0.30;100184;;;;584045;241;24058;-79
2023/12/28 01:41:16;;;;;;;23.53;10.43;;;0.70;99.90;-0.30;100168;;;;583718;241;24053;-79
2023/12/28 01:43:44;;;;;;;20.50;9.93;;;0.70;99.90;-0.30;100165;;;;584686;241;24078;-80
2023/12/28 01:46:14;;;;;;;27.60;9.97;;;0.70;99.90;-0.20;100152;;;;593217;239;24043;-80
2023/12/28 01:48:42;;;;;;;17.73;9.40;;;0.80;99.90;-0.20;100131;;;;585761;240;24086;-78
2023/12/28 01:51:10;;;;;;;19.83;10.73;;;0.70;99.90;-0.20;100116;;;;585760;241;24099;-78
2023/12/28 01:53:39;;;;;;;22.80;9.43;;;0.80;99.90;-0.30;100106;;;;584802;241;24056;-80
2023/12/28 01:56:11;;;;;;;22.60;11.20;;;0.70;99.90;-0.30;100109;;;;594241;240;24090;-80
2023/12/28 01:58:36;;;;;;;22.13;11.33;;;0.70;99.90;-0.30;100106;;;;584221;241;24064;-77
2023/12/28 02:01:07;;;;;;;21.17;11.43;;;0.70;99.90;-0.40;100115;;;;585010;241;25136;-79
2023/12/28 02:03:32;;;;;;;22.73;11.50;;;0.70;99.90;-0.40;100095;;;;584633;241;25090;-79
2023/12/28 02:06:00;;;;;;;20.13;11.63;;;0.60;99.90;-0.50;100076;;;;584839;241;24069;-79
2023/12/28 02:08:28;;;;;;;21.17;11.20;;;0.60;99.90;-0.50;100064;;;;583884;241;24168;-79
2023/12/28 02:10:56;;;;;;;20.80;11.40;;;0.50;99.90;-0.50;100074;;;;584976;241;24053;-79
2023/12/28 02:13:24;;;;;;;22.70;13.53;;;0.50;99.90;-0.60;100075;;;;584407;241;24071;-78
2023/12/28 02:16:06;;;;;;;24.70;11.57;;;0.40;99.90;-0.50;100052;;;;584835;240;24059;-80
2023/12/28 02:18:35;;;;;;;23.27;12.40;;;0.50;99.90;-0.50;100046;;;;582200;241;24079;-77
2023/12/28 02:21:06;;;;;;;24.53;12.50;;;0.50;99.90;-0.50;100040;;;;584621;241;24054;-78
2023/12/28 02:23:31;;;;;;;27.23;13.87;;;0.60;99.90;-0.40;100029;;;;595518;238;24106;-78
2023/12/28 02:25:59;;;;;;;27.20;14.13;;;0.60;99.90;-0.40;100022;;;;584434;237;24051;-79
2023/12/28 02:28:29;;;;;;;25.40;15.63;;;0.60;99.90;-0.30;100026;;;;584228;241;24160;-80
2023/12/28 02:30:54;;;;;;;34.53;16.17;;;0.70;99.90;-0.30;100010;;;;584079;241;24115;-79
2023/12/28 02:33:37;;;;;;;31.60;16.40;;;0.70;99.90;-0.30;99997;;;;584756;241;24056;-79
2023/12/28 02:36:08;;;;;;;29.53;17.10;;;0.80;99.90;-0.20;100007;;;;590280;241;24121;-79
2023/12/28 02:38:36;;;;;;;34.77;17.23;;;0.80;99.90;-0.20;99996;;;;583623;241;24065;-79
2023/12/28 02:41:04;;;;;;;37.93;18.23;;;0.80;99.90;-0.20;99989;;;;592582;241;24078;-79
2023/12/28 02:43:33;;;;;;;37.00;18.17;;;0.80;99.90;-0.20;99978;;;;593315;241;24056;-79
2023/12/28 02:46:00;;;;;;;33.63;16.03;;;0.80;99.90;-0.20;99978;;;;592449;240;24063;-79
2023/12/28 02:48:28;;;;;;;34.90;18.10;;;0.80;99.90;-0.10;99970;;;;592926;241;24044;-78
2023/12/28 02:50:56;;;;;;;31.80;17.33;;;0.90;99.90;-0.10;99972;;;;592915;241;24063;-79
2023/12/28 02:53:24;;;;;;;29.27;16.90;;;0.90;99.90;-0.10;99968;;;;592896;241;24056;-79
2023/12/28 02:55:52;;;;;;;34.70;14.93;;;0.90;99.90;-0.10;99953;;;;593479;241;24100;-79
2023/12/28 02:58:20;;;;;;;36.50;16.77;;;0.90;99.90;-0.10;99952;;;;593956;240;24074;-79
2023/12/28 03:00:48;;;;;;;32.37;16.27;;;0.90;99.90;-0.10;99938;;;;594806;240;24129;-79
2023/12/28 03:03:16;;;;;;;31.10;15.20;;;0.90;99.90;0.00;99939;;;;594436;241;24051;-78
2023/12/28 03:05:44;;;;;;;19.93;13.07;;;0.90;99.90;0.00;99948;;;;594500;241;24049;-78
2023/12/28 03:08:13;;;;;;;21.30;13.30;;;1.00;99.90;0.00;99942;;;;594909;241;24068;-79
2023/12/28 03:10:41;;;;;;;26.30;13.07;;;1.00;99.90;0.10;99938;;;;594773;241;24114;-78
2023/12/28 03:13:09;;;;;;;26.00;14.97;;;1.00;99.90;0.10;99934;;;;594237;241;24068;-79
2023/12/28 03:15:37;;;;;;;35.43;15.33;;;1.10;99.90;0.10;99939;;;;594801;241;24095;-78
2023/12/28 03:18:05;;;;;;;28.33;13.97;;;1.10;99.90;0.10;99932;;;;594484;241;24059;-80
2023/12/28 03:20:33;;;;;;;30.40;16.53;;;1.10;99.90;0.10;99926;;;;594095;241;24137;-78
2023/12/28 03:23:01;;;;;;;22.60;12.90;;;1.20;99.90;0.20;99922;;;;594204;241;24062;-77
2023/12/28 03:25:29;;;;;;;18.03;8.90;;;1.20;99.90;0.20;99915;;;;594087;241;24063;-79
2023/12/28 03:27:57;;;;;;;25.87;12.17;;;1.20;99.90;0.20;99915;;;;593969;241;25100;-79
2023/12/28 03:30:25;;;;;;;17.70;9.53;;;1.20;99.90;0.30;99905;;;;594430;241;24070;-78
2023/12/28 03:32:53;;;;;;;21.57;9.63;;;1.30;99.90;0.30;99890;;;;594477;241;24059;-78
2023/12/28 03:35:21;;;;;;;20.23;10.57;;;1.30;99.90;0.30;99894;;;;593758;241;24094;-77
2023/12/28 03:37:49;;;;;;;17.13;9.83;;;1.30;99.90;0.30;99892;;;;594281;241;24072;-77
2023/12/28 03:40:17;;;;;;;25.23;11.30;;;1.30;99.90;0.30;99878;;;;594235;241;24078;-79
2023/12/28 03:42:45;;;;;;;28.17;11.60;;;1.30;99.90;0.30;99871;;;;593308;238;24161;-79
2023/12/28 03:45:17;;;;;;;22.27;9.63;;;1.30;99.90;0.30;99868;;;;593740;241;24055;-78
2023/12/28 03:47:41;;;;;;;11.17;7.20;;;1.30;99.90;0.30;99858;;;;583366;241;24078;-79
2023/12/28 03:50:09;;;;;;;32.95;17.20;;;1.30;99.90;0.30;99847;;;;588992;241;35173;-79
2023/12/28 03:52:37;;;;;;;23.53;11.70;;;1.30;99.90;0.30;99848;;;;594192;241;24059;-79
2023/12/28 03:55:05;;;;;;;15.23;9.20;;;1.30;99.90;0.30;99836;;;;593638;241;24056;-80
2023/12/28 03:57:33;;;;;;;24.93;8.80;;;1.30;99.90;0.30;99832;;;;594196;241;24045;-78
2023/12/28 04:00:01;;;;;;;12.17;6.53;;;1.30;99.90;0.30;99826;;;;594243;241;24121;-79
2023/12/28 04:02:31;;;;;;;14.03;8.10;;;1.30;99.90;0.30;99826;;;;593688;241;24129;-79
2023/12/28 04:04:58;;;;;;;14.73;9.00;;;1.30;99.90;0.30;99809;;;;593661;238;24063;-78
2023/12/28 04:07:25;;;;;;;18.27;8.23;;;1.30;99.90;0.30;99797;;;;594176;237;24086;-78
2023/12/28 04:09:53;;;;;;;6.57;5.10;;;1.30;99.90;0.30;99767;;;;594648;240;24144;-79
2023/12/28 04:12:21;;;;;;;13.83;8.33;;;1.30;99.90;0.20;99748;;;;594682;237;24045;-79
2023/12/28 04:14:48;;;;;;;11.27;6.90;;;1.30;99.90;0.20;99724;;;;594710;241;24092;-79
2023/12/28 04:17:17;;;;;;;18.83;9.57;;;1.20;99.90;0.20;99725;;;;594730;241;24057;-78
2023/12/28 04:19:45;;;;;;;27.80;10.70;;;1.20;99.90;0.10;99725;;;;594866;241;24072;-78
2023/12/28 04:22:14;;;;;;;27.13;12.93;;;1.00;99.90;0.00;99738;;;;594765;241;25089;-77
2023/12/28 04:24:42;;;;;;;27.80;16.73;;;1.00;99.90;0.00;99730;;;;594748;241;25102;-77
2023/12/28 04:27:10;;;;;;;19.70;12.57;;;1.00;99.90;0.00;99716;;;;594517;241;24151;-78
2023/12/28 04:29:38;;;;;;;27.00;15.77;;;1.00;99.90;0.00;99722;;;;594160;241;24067;-77
2023/12/28 04:32:06;;;;;;;29.83;17.00;;;0.90;99.90;-0.10;99709;;;;594010;241;24076;-77
2023/12/28 04:34:34;;;;;;;31.87;15.77;;;0.90;99.90;0.00;99718;;;;593405;241;24062;-77
2023/12/28 04:37:02;;;;;;;25.57;15.73;;;0.90;99.90;-0.10;99706;;;;593288;237;24062;-77
2023/12/28 04:39:30;;;;;;;27.43;16.53;;;0.90;99.90;-0.10;99698;;;;593458;241;25117;-78
2023/12/28 04:41:58;;;;;;;24.77;14.40;;;0.90;99.90;-0.10;99684;;;;592799;241;24066;-78
2023/12/28 04:44:26;;;;;;;31.13;15.77;;;0.90;99.90;-0.10;99694;;;;584126;241;24057;-78
2023/12/28 04:46:54;;;;;;;24.03;13.80;;;0.80;99.90;-0.20;99677;;;;594351;241;24067;-78
2023/12/28 04:49:22;;;;;;;27.00;15.60;;;0.80;99.90;-0.20;99640;;;;593029;241;24063;-79
2023/12/28 04:51:50;;;;;;;33.13;14.13;;;0.80;99.90;-0.30;99631;;;;592666;241;24067;-80
2023/12/28 04:54:18;;;;;;;28.23;14.13;;;0.80;99.90;-0.30;99645;;;;593095;241;25110;-80
2023/12/28 04:56:46;;;;;;;29.63;15.33;;;0.70;99.90;-0.30;99646;;;;592995;241;24115;-79
2023/12/28 04:59:15;;;;;;;23.73;13.57;;;0.80;99.90;-0.20;99643;;;;593111;241;25098;-79
2023/12/28 05:01:45;;;;;;;25.20;13.00;;;0.70;99.90;-0.20;99637;;;;595783;240;24051;-77
2023/12/28 05:04:13;;;;;;;26.73;14.37;;;0.80;99.90;-0.20;99628;;;;584613;241;24071;-78
2023/12/28 05:06:42;;;;;;;23.43;14.13;;;0.80;99.90;-0.10;99627;;;;592484;241;24067;-78
2023/12/28 05:09:11;;;;;;;26.97;13.20;;;0.90;99.90;-0.10;99608;;;;593228;241;24127;-78
2023/12/28 05:11:39;;;;;;;22.43;12.60;;;0.90;99.90;-0.10;99594;;;;593119;241;24080;-77
2023/12/28 05:14:06;;;;;;;19.67;12.53;;;0.90;99.90;0.00;99601;;;;583813;241;25117;-78
2023/12/28 05:16:35;;;;;;;29.80;12.90;;;1.00;99.90;0.00;99582;;;;592600;241;24083;-78
2023/12/28 05:19:03;;;;;;;20.77;10.80;;;1.00;99.90;0.00;99574;;;;593773;241;24073;-79
2023/12/28 05:21:31;;;;;;;21.97;12.23;;;1.00;99.90;0.10;99571;;;;594248;240;24064;-78
2023/12/28 05:23:59;;;;;;;18.57;8.73;;;1.00;99.90;0.10;99555;;;;586483;241;24129;-79
2023/12/28 05:26:28;;;;;;;23.93;9.87;;;1.10;99.90;0.10;99568;;;;595225;237;24083;-78
2023/12/28 05:28:55;;;;;;;17.80;10.90;;;1.10;99.90;0.20;99551;;;;594675;241;24036;-77
2023/12/28 05:31:23;;;;;;;16.27;10.03;;;1.20;99.90;0.20;99524;;;;594406;241;24085;-78
2023/12/28 05:33:55;;;;;;;20.83;11.17;;;1.20;99.90;0.20;99531;;;;586505;234;24131;-79
2023/12/28 05:36:21;;;;;;;16.47;8.80;;;1.20;99.90;0.20;99580;;;;585159;245;24107;-79
2023/12/28 05:38:49;;;;;;;19.03;9.47;;;1.20;99.90;0.30;99552;;;;574259;245;24067;-79
2023/12/28 05:41:20;;;;;;;12.60;6.73;;;1.20;99.90;0.30;99537;;;;573888;246;24053;-77
2023/12/28 05:43:46;;;;;;;17.33;7.33;;;1.30;99.90;0.30;99561;;;;585133;245;24127;-81
2023/12/28 05:46:14;;;;;;;14.97;8.03;;;1.30;99.90;0.40;99569;;;;574410;246;25113;-79
2023/12/28 05:48:42;;;;;;;11.73;4.73;;;1.30;99.90;0.40;99556;;;;573885;246;24060;-79
2023/12/28 05:51:10;;;;;;;6.20;3.87;;;1.40;99.90;0.40;99571;;;;573976;246;24060;-79
2023/12/28 05:53:38;;;;;;;11.50;4.93;;;1.40;99.90;0.40;99579;;;;581967;246;24083;-79
2023/12/28 05:56:06;;;;;;;10.47;3.97;;;1.50;99.90;0.50;99571;;;;573451;246;24238;-80
2023/12/28 05:58:38;;;;;;;17.58;8.90;;;1.50;99.90;0.50;99568;;;;568989;246;35125;-80
2023/12/28 06:01:06;;;;;;;12.33;7.03;;;1.50;99.90;0.60;99564;;;;573167;246;24079;-79
2023/12/28 06:03:30;;;;;;;11.73;5.17;;;1.60;99.90;0.60;99570;;;;584358;245;24124;-80
2023/12/28 06:05:58;;;;;;;11.80;5.10;;;1.60;99.90;0.60;99578;;;;573710;246;24069;-79
2023/12/28 06:08:26;;;;;;;24.73;6.60;;;1.60;99.90;0.60;99574;;;;585184;245;24069;-79
2023/12/28 06:10:58;;;;;;;11.93;5.50;;;1.70;99.90;0.70;99578;;;;573913;245;24093;-78
2023/12/28 06:13:22;;;;;;;14.30;5.77;;;1.70;99.90;0.70;99567;;;;585098;245;24072;-79
2023/12/28 06:15:50;;;;;;;12.57;5.53;;;1.70;99.90;0.80;99551;;;;573689;245;24074;-78
2023/12/28 06:18:18;;;;;;;9.07;4.70;;;1.70;99.90;0.80;99544;;;;574188;245;24088;-79
2023/12/28 06:20:47;;;;;;;20.75;10.02;;;1.80;99.90;0.70;99553;;;;568870;245;35125;-79
2023/12/28 06:23:15;;;;;;;17.53;7.63;;;1.70;99.90;0.80;99541;;;;573861;245;24501;-79
2023/12/28 06:25:42;;;;;;;18.70;6.93;;;1.80;99.90;0.80;99536;;;;573971;246;24044;-80
2023/12/28 06:28:10;;;;;;;13.63;6.30;;;1.80;99.90;0.90;99512;;;;589310;241;24096;-79
2023/12/28 06:30:39;;;;;;;13.43;6.50;;;1.80;99.90;0.90;99509;;;;571670;251;25496;-79
2023/12/28 06:33:10;;;;;;;14.53;5.10;;;1.80;99.90;0.90;99509;;;;563368;250;24118;-80
2023/12/28 06:35:34;;;;;;;9.37;5.10;;;1.90;99.90;1.00;99515;;;;563303;251;24188;-79
2023/12/28 06:38:02;;;;;;;17.57;6.33;;;1.90;99.90;1.00;99507;;;;574036;246;24083;-80
2023/12/28 06:40:30;;;;;;;16.63;5.73;;;2.00;99.90;1.00;99489;;;;582846;246;24112;-78
2023/12/28 06:42:58;;;;;;;9.57;5.30;;;2.00;99.90;1.00;99505;;;;582779;246;24091;-78
2023/12/28 06:45:27;;;;;;;14.87;6.17;;;2.00;99.90;1.10;99509;;;;582630;246;24098;-80
2023/12/28 06:47:56;;;;;;;12.40;5.87;;;2.10;99.90;1.10;99502;;;;582594;246;24098;-79
2023/12/28 06:50:21;;;;;;;15.13;6.23;;;2.10;99.90;1.20;99504;;;;573274;246;24115;-79
2023/12/28 06:52:52;;;;;;;12.30;6.83;;;2.20;99.90;1.20;99504;;;;582119;246;24305;-79
2023/12/28 06:55:18;;;;;;;9.57;5.73;;;2.20;99.90;1.30;99515;;;;581502;244;25158;-79
2023/12/28 06:57:45;;;;;;;22.17;4.93;;;2.20;99.90;1.30;99508;;;;581635;246;24116;-79
2023/12/28 07:00:13;;;;;;;15.43;5.97;;;2.30;99.90;1.40;99527;;;;582345;246;24198;-80
2023/12/28 07:02:41;;;;;;;12.73;7.03;;;2.30;99.90;1.40;99526;;;;573003;246;24103;-80
2023/12/28 07:05:12;;;;;;;17.40;6.23;;;2.40;99.90;1.40;99521;;;;581767;242;24100;-82
2023/12/28 07:07:38;;;;;;;13.43;5.70;;;2.50;99.90;1.50;99520;;;;581883;246;24127;-81
2023/12/28 07:10:06;;;;;;;11.63;4.93;;;2.40;99.90;1.60;99528;;;;582030;246;24094;-81
2023/12/28 07:12:35;;;;;;;20.37;5.50;;;2.60;99.90;1.60;99518;;;;573659;246;24106;-82
2023/12/28 07:15:02;;;;;;;13.27;6.47;;;2.60;99.90;1.70;99520;;;;581905;243;24151;-80
2023/12/28 07:17:30;;;;;;;11.00;6.00;;;2.70;99.90;1.80;99516;;;;582240;246;24147;-79
2023/12/28 07:20:01;;;;;;;14.03;6.33;;;2.70;99.90;1.80;99519;;;;582230;246;24101;-80
2023/12/28 07:22:26;;;;;;;15.63;6.07;;;2.80;99.90;1.90;99531;;;;574965;246;25488;-79
2023/12/28 07:24:54;;;;;;;12.63;5.53;;;2.80;99.90;1.90;99539;;;;581913;246;24092;-80
2023/12/28 07:27:22;;;;;;;13.00;5.33;;;2.90;99.90;2.00;99536;;;;581833;242;24118;-80
2023/12/28 07:29:50;;;;;;;11.30;6.77;;;2.90;99.90;2.00;99537;;;;576019;246;25465;-81
2023/12/28 07:32:19;;;;;;;7.10;4.00;;;3.00;99.90;2.10;99542;;;;582267;246;24092;-80
2023/12/28 07:34:46;;;;;;;9.13;5.83;;;3.00;99.90;2.10;99544;;;;582071;242;24130;-79
2023/12/28 07:37:14;;;;;;;11.33;6.33;;;3.10;99.90;2.20;99539;;;;561315;252;25159;-84
2023/12/28 07:39:42;;;;;;;11.93;4.80;;;3.20;99.90;2.30;99553;;;;563543;252;24107;-81
2023/12/28 07:42:09;;;;;;;9.87;5.20;;;3.20;99.90;2.30;99538;;;;563737;252;24344;-81
2023/12/28 07:44:40;;;;;;;8.97;4.77;;;3.30;99.90;2.40;99546;;;;563962;251;24137;-83
2023/12/28 07:47:07;;;;;;;9.67;4.97;;;3.30;99.90;2.50;99555;;;;564751;251;24125;-80
2023/12/28 07:49:35;;;;;;;7.47;4.20;;;3.40;99.90;2.60;99546;;;;564008;250;24129;-80
2023/12/28 07:52:06;;;;;;;15.13;5.27;;;3.50;99.90;2.70;99539;;;;564246;251;24133;-79
2023/12/28 07:54:31;;;;;;;10.43;4.67;;;3.60;99.90;2.80;99536;;;;569942;251;24136;-80
2023/12/28 07:57:03;;;;;;;8.97;4.93;;;3.60;99.90;2.80;99532;;;;564035;250;24122;-81
2023/12/28 07:59:27;;;;;;;6.67;3.80;;;3.70;99.90;2.90;99545;;;;562983;251;24130;-81
2023/12/28 08:01:55;;;;;;;7.70;4.17;;;3.80;99.90;3.00;99543;;;;562289;252;24150;-81
2023/12/28 08:04:23;;;;;;;10.50;5.47;;;4.00;99.90;3.00;99533;;;;579380;247;24086;-80
2023/12/28 08:06:51;;;;;;;9.93;5.30;;;3.90;99.90;3.10;99530;;;;562098;256;24296;-78
2023/12/28 08:09:19;;;;;;;7.53;4.00;;;4.00;99.90;3.20;99533;;;;579797;247;24120;-80
2023/12/28 08:11:47;;;;;;;6.73;5.07;;;4.10;99.90;3.20;99536;;;;570683;247;24081;-80
2023/12/28 08:14:15;;;;;;;12.40;4.37;;;4.10;99.90;3.30;99541;;;;579775;247;24084;-79
2023/12/28 08:16:44;;;;;;;9.30;4.77;;;4.30;99.90;3.40;99554;;;;577420;246;24092;-79
2023/12/28 08:19:13;;;;;;;5.60;4.33;;;4.30;99.90;3.40;99551;;;;571331;251;24175;-82
2023/12/28 08:21:41;;;;;;;7.07;3.73;;;4.30;99.90;3.50;99535;;;;573745;246;24079;-80
2023/12/28 08:24:10;;;;;;;7.87;4.27;;;4.50;99.90;3.60;99556;;;;582338;246;24100;-80
2023/12/28 08:26:38;;;;;;;19.33;5.50;;;4.50;99.90;3.60;99555;;;;582232;242;27340;-79
2023/12/28 08:29:06;;;;;;;8.43;5.20;;;4.50;99.90;3.70;99554;;;;582417;246;24095;-79
2023/12/28 08:31:34;;;;;;;10.33;5.13;;;4.60;99.90;3.80;99564;;;;575480;246;24077;-81
2023/12/28 08:34:01;;;;;;;7.13;4.57;;;4.70;99.90;3.80;99560;;;;582465;246;24084;-81
2023/12/28 08:36:30;;;;;;;9.03;4.77;;;4.80;99.90;3.90;99568;;;;582403;246;24089;-80
2023/12/28 08:38:58;;;;;;;7.30;4.07;;;4.80;99.90;4.00;99553;;;;582362;246;24099;-81
2023/12/28 08:41:26;;;;;;;8.57;4.57;;;4.90;99.90;4.10;99552;;;;581662;246;25182;-80
2023/12/28 08:43:57;;;;;;;10.67;4.23;;;4.90;99.90;4.10;99557;;;;563169;249;24117;-81
2023/12/28 08:46:28;;;;;;;7.10;4.53;;;5.00;99.90;4.20;99568;;;;575718;247;24046;-81
2023/12/28 08:48:55;;;;;;;7.83;4.50;;;5.10;99.90;4.30;99567;;;;571675;242;24072;-80
2023/12/28 08:51:23;;;;;;;12.40;4.73;;;5.10;99.90;4.40;99589;;;;561747;252;24120;-81
2023/12/28 08:53:51;;;;;;;6.40;3.83;;;5.20;99.90;4.40;99579;;;;562995;252;24127;-81
2023/12/28 08:56:22;;;;;;;8.30;4.93;;;5.30;99.90;4.50;99582;;;;563927;250;24138;-79
2023/12/28 08:58:54;;;;;;;5.83;4.07;;;5.40;99.90;4.50;99596;;;;564203;250;24133;-79
2023/12/28 09:01:30;;;;;;;7.93;4.53;;;5.40;99.90;4.60;99597;;;;562919;249;25171;-81
2023/12/28 09:03:55;;;;;;;6.43;3.73;;;5.40;99.90;4.60;99593;;;;571134;246;24112;-80
2023/12/28 09:06:19;;;;;;;7.60;4.93;;;5.50;99.90;4.60;99598;;;;563168;250;24149;-81
2023/12/28 09:08:50;;;;;;;11.90;6.20;;;5.60;99.90;4.70;99593;;;;565757;250;35441;-81
2023/12/28 09:11:19;;;;;;;7.77;5.27;;;5.60;99.90;4.70;99591;;;;564133;250;24226;-80
2023/12/28 09:13:47;;;;;;;13.87;6.07;;;5.60;99.90;4.80;99587;;;;562547;251;24139;-80
2023/12/28 09:16:18;;;;;;;11.77;5.10;;;5.60;99.90;4.80;99575;;;;563298;251;24070;-80
2023/12/28 09:18:43;;;;;;;6.77;5.07;;;5.70;99.90;4.90;99579;;;;561549;252;24172;-80
2023/12/28 09:21:11;;;;;;;10.23;4.50;;;5.80;99.90;5.00;99578;;;;569660;251;24092;-79
2023/12/28 09:23:41;;;;;;;8.43;5.07;;;5.80;99.90;5.00;99576;;;;561812;256;24158;-80
2023/12/28 09:26:08;;;;;;;15.63;7.77;;;6.00;99.90;5.10;99579;;;;561613;241;35395;-81
2023/12/28 09:28:36;;;;;;;9.23;6.10;;;5.90;99.90;5.20;99585;;;;573198;246;24458;-81
2023/12/28 09:31:08;;;;;;;14.63;7.07;;;6.10;99.90;5.20;99586;;;;561539;251;24170;-81
2023/12/28 09:33:36;;;;;;;9.53;5.50;;;6.10;99.90;5.30;99581;;;;570557;251;24367;-79
2023/12/28 09:36:00;;;;;;;16.80;5.30;;;6.10;99.90;5.40;99587;;;;560139;252;24156;-81
2023/12/28 09:38:32;;;;;;;13.33;7.67;;;6.20;99.90;5.40;99587;;;;555267;251;35484;-81
2023/12/28 09:40:57;;;;;;;14.40;7.80;;;6.30;99.90;5.50;99600;;;;556519;252;35558;-80
2023/12/28 09:43:27;;;;;;;13.73;7.93;;;6.30;99.90;5.50;99593;;;;575535;242;35157;-80
2023/12/28 09:45:54;;;;;;;12.80;8.05;;;6.40;99.90;5.60;99591;;;;557829;252;35556;-79
2023/12/28 09:48:22;;;;;;;11.93;6.07;;;6.50;99.90;5.60;99575;;;;581955;242;24064;-79
2023/12/28 09:50:53;;;;;;;8.30;5.77;;;6.50;99.90;5.70;99585;;;;581516;241;24403;-79
2023/12/28 09:53:19;;;;;;;12.87;5.30;;;6.60;99.90;5.80;99575;;;;561459;252;24167;-82
2023/12/28 09:55:47;;;;;;;6.83;4.37;;;6.60;99.90;5.80;99568;;;;563083;251;24127;-81
2023/12/28 09:58:15;;;;;;;11.83;6.73;;;6.70;99.90;5.90;99564;;;;558117;251;35456;-82
2023/12/28 10:00:43;;;;;;;9.07;5.60;;;6.70;99.90;6.00;99560;;;;563220;251;24132;-81
2023/12/28 10:03:10;;;;;;;7.80;5.37;;;6.80;99.90;6.00;99552;;;;580536;242;28387;-81
2023/12/28 10:05:39;;;;;;;10.60;5.33;;;6.90;99.90;6.00;99529;;;;573026;246;24091;-81
2023/12/28 10:08:08;;;;;;;6.60;4.40;;;6.90;99.90;6.10;99544;;;;574007;245;24092;-80
2023/12/28 10:10:36;;;;;;;9.17;5.20;;;6.90;99.90;6.10;99553;;;;575728;245;24139;-80
2023/12/28 10:13:04;;;;;;;6.80;5.03;;;7.00;99.90;6.10;99544;;;;571152;245;24105;-80
2023/12/28 10:15:32;;;;;;;13.80;4.70;;;7.00;99.90;6.10;99545;;;;573559;246;24096;-81
2023/12/28 10:18:00;;;;;;;7.27;4.70;;;7.00;99.90;6.10;99548;;;;569491;246;24090;-80
2023/12/28 10:20:28;;;;;;;9.97;4.87;;;7.00;99.90;6.10;99556;;;;571548;247;23994;-81
2023/12/28 10:22:56;;;;;;;10.17;4.63;;;7.00;99.90;6.20;99535;;;;568032;246;24111;-79
2023/12/28 10:25:27;;;;;;;11.17;4.60;;;7.00;99.90;6.20;99544;;;;563243;251;24124;-80
2023/12/28 10:27:53;;;;;;;6.57;4.37;;;7.00;99.90;6.20;99547;;;;564355;248;24139;-80
2023/12/28 10:30:23;;;;;;;8.80;5.13;;;7.00;99.90;6.20;99544;;;;571108;251;24150;-81
2023/12/28 10:32:52;;;;;;;11.97;5.23;;;7.10;99.90;6.20;99554;;;;562117;251;24140;-82
2023/12/28 10:35:19;;;;;;;7.20;4.20;;;7.10;99.90;6.30;99554;;;;562500;251;24117;-80
2023/12/28 10:37:48;;;;;;;6.53;3.67;;;7.10;99.90;6.30;99554;;;;562592;251;24105;-81
2023/12/28 10:40:17;;;;;;;5.47;4.00;;;7.10;99.90;6.30;99539;;;;563039;251;24111;-79
2023/12/28 10:42:51;;;;;;;7.90;4.80;;;7.10;99.90;6.30;99564;;;;555824;251;24156;-81
2023/12/28 10:45:23;;;;;;;5.63;4.40;;;7.10;99.90;6.30;99547;;;;570061;246;24110;-81
2023/12/28 10:47:46;;;;;;;8.43;4.03;;;7.10;99.90;6.20;99549;;;;572224;246;24085;-81
2023/12/28 10:50:14;;;;;;;6.87;3.83;;;7.00;99.90;6.20;99544;;;;580553;242;24054;-81
2023/12/28 10:52:42;;;;;;;9.27;4.97;;;7.10;99.90;6.30;99547;;;;561210;251;24187;-80
2023/12/28 10:55:13;;;;;;;11.33;4.20;;;7.10;99.90;6.30;99561;;;;562562;251;24116;-81
2023/12/28 10:57:44;;;;;;;5.70;3.83;;;7.10;99.90;6.20;99570;;;;582590;242;24087;-81
2023/12/28 11:00:15;;;;;;;13.40;4.93;;;7.00;99.90;6.20;99570;;;;580596;241;27344;-81
2023/12/28 11:02:43;;;;;;;8.20;5.17;;;7.00;99.90;6.30;99567;;;;573401;246;24087;-81
2023/12/28 11:05:11;;;;;;;10.47;7.03;;;7.10;99.90;6.30;99556;;;;575298;243;35145;-80
2023/12/28 11:07:39;;;;;;;7.93;5.20;;;7.10;99.90;6.40;99568;;;;572402;246;24100;-80
2023/12/28 11:10:07;;;;;;;7.37;5.87;;;7.20;99.90;6.40;99565;;;;571582;246;24134;-84
2023/12/28 11:12:35;;;;;;;10.53;5.70;;;7.20;99.90;6.40;99574;;;;574984;246;24101;-83
2023/12/28 11:15:03;;;;;;;5.87;4.33;;;7.20;99.90;6.40;99574;;;;565331;249;24119;-80
2023/12/28 11:17:31;;;;;;;8.90;5.23;;;7.20;99.90;6.40;99566;;;;561123;252;24513;-83
2023/12/28 11:20:02;;;;;;;12.17;7.10;;;7.20;99.90;6.40;99556;;;;557703;251;35431;-81
2023/12/28 11:22:30;;;;;;;8.77;5.00;;;7.20;99.90;6.40;99566;;;;580576;244;24057;-78
2023/12/28 11:24:55;;;;;;;9.13;4.90;;;7.20;99.90;6.40;99550;;;;578115;241;24068;-80